Portada
METAR-TAF:

METAR-TAF

Aeroports :

Manila, Filipines

latitud: 14-31N, longitud: 121-00E, altitud: 14 m

Observació

L'informe es va fer fa 1 hora i 3 minuts, a les 17:00 UTC
Vent 6 kt del Est/Sud-Est, variant entre Est/Nord-Est i Sud/Sud-Est
Temperatura 28°C
Humitat 66%
Pressió 1013 hPa
Visibilitat 10 km o més
Escasses núvols a una alçada de 2500 ft

METAR: RPLL 031700Z 12006KT 070V160 9999 FEW025 28/21 Q1013 NOSIG RMK A2991

Hora: 02:03 (18:03 UTC)

Pronòstic

L'informe es va fer fa 1 hora i 3 minuts, a les 17:00 UTC
Pronòstic vàlid del 03 a les 18 UTC al 04 a les 24 UTC
Vent 8 kt del Est/Sud-Est
Visibilitat 10 km o més
Escasses núvols a una alçada de 2500 ft
Temporalment
l' 03 a les 18 UTC al 03 a les 24 UTC
Vent 6 kt del Est
Temporalment
l' 04 a les 03 UTC al 04 a les 09 UTC
Vent 16 kt del Sud-Est

TAF: RPLL 031700Z 0318/0424 12008KT 9999 FEW025 TX35/0406Z TN26/0321Z TEMPO 0318/0324 09006KT TEMPO 0403/0409 14016KT

Observacions i pronòstics meteorològics de més de 4000 aeroports (METAR i TAF).

Les estacions disponibles són els punts grocs i vermells al mapa.

Posi el ratolí al punt desitjat per veure el nom de l'estació.

Feu clic per veure les observacions i els pronòstics meteorològics.

Per canviar el mapa: feu clic els botons verds amb una creu de color negre per apropar; al botó verd amb un guió per allunyar la imatge; o en les fletxes verdes per a mapes adjacents.


METAR-TAF: